»·PEaware :: N149CD KVNY-L26

N149CD :: KVNY-L26

FLIGHT INFORMATION

Flight Status: Arrived
Operator: Privately registered:
United States
More flights under this callsign
Pilot: Nathan E. (30132)
Aircraft: CIRRUS SR-22
(SR22)
More flights by this aircraft type
Origin: KVNY Van Nuys
United States
Destination: L26 Hesperia
United States
More flights between these airports :: More routes between these airports
Route: NUAL1 PMD V386 APLES
File this flight plan on PilotEdge
Remarks:
Altitude:
(Current/Filed)
7,000ft
Speed:
(Current/Filed)
170kts
Departed: 11-Jan-21 12:31 PM
Arrived: 11-Jan-21 01:11 PM
Distance/Time
Traveled:
59nm/0:40
Distance/Time
To Go:
Arrived

Flight Plot

Page will automatically refresh every two minutes.

Flight plan parsing failed; only flown route is shown


Map Options




Map Legend


Flown Route
Filed Route
Departure Airport
Arrival Airport
Navaid (VOR, NDB)
Fix

Horizontal Profiles

Position Reports

Time Latitude Longitude Heading Altitude Ground
Speed
11-Jan-21 12:08 34.208083 -118.491770 90 804ft 0kts
11-Jan-21 12:09 34.208083 -118.491770 90 804ft 0kts
11-Jan-21 12:10 34.208083 -118.491770 90 804ft 0kts
11-Jan-21 12:11 34.208083 -118.491770 90 804ft 0kts
11-Jan-21 12:12 34.208083 -118.491770 90 804ft 0kts
11-Jan-21 12:13 34.208083 -118.491770 90 804ft 0kts
11-Jan-21 12:14 34.208083 -118.491770 90 804ft 0kts
11-Jan-21 12:15 34.208083 -118.491770 90 804ft 0kts
11-Jan-21 12:16 34.208083 -118.491770 90 804ft 0kts
11-Jan-21 12:17 34.208083 -118.491770 90 804ft 0kts
11-Jan-21 12:18 34.208083 -118.491770 90 804ft 0kts
11-Jan-21 12:19 34.208083 -118.491770 90 804ft 0kts
11-Jan-21 12:20 34.207021 -118.491278 174 804ft 9kts
11-Jan-21 12:21 34.203212 -118.490905 172 804ft 15kts
11-Jan-21 12:22 34.199084 -118.490196 175 804ft 14kts
11-Jan-21 12:23 34.196567 -118.489883 0 804ft 0kts
11-Jan-21 12:24 34.196567 -118.489883 0 804ft 0kts
11-Jan-21 12:25 34.196567 -118.489883 0 804ft 0kts
11-Jan-21 12:26 34.196567 -118.489883 0 804ft 0kts
11-Jan-21 12:27 34.196567 -118.489883 0 804ft 0kts
11-Jan-21 12:28 34.196567 -118.489883 0 804ft 0kts
11-Jan-21 12:29 34.197616 -118.489226 352 804ft 18kts
11-Jan-21 12:30 34.224947 -118.491689 358 1556ft 119kts
11-Jan-21 12:31 34.241251 -118.518564 264 2862ft 130kts
11-Jan-21 12:32 34.234521 -118.562588 264 3984ft 126kts
11-Jan-21 12:33 34.227640 -118.606331 265 4862ft 134kts
11-Jan-21 12:34 34.249277 -118.610658 42 5702ft 119kts
11-Jan-21 12:35 34.273782 -118.582577 36 6450ft 121kts
11-Jan-21 12:36 34.299204 -118.554144 36 7036ft 131kts
11-Jan-21 12:37 34.328605 -118.521319 38 7035ft 148kts
11-Jan-21 12:38 34.359569 -118.486687 38 7036ft 149kts
11-Jan-21 12:39 34.389268 -118.450430 48 7043ft 150kts
11-Jan-21 12:40 34.415034 -118.409557 49 7055ft 150kts
11-Jan-21 12:41 34.440626 -118.368839 49 7075ft 150kts
11-Jan-21 12:42 34.466563 -118.327518 49 7101ft 151kts
11-Jan-21 12:43 34.492564 -118.286046 49 7123ft 152kts
11-Jan-21 12:44 34.519252 -118.243448 49 7021ft 155kts
11-Jan-21 12:45 34.545697 -118.201178 49 7035ft 155kts
11-Jan-21 12:46 34.572069 -118.158977 48 7040ft 157kts
11-Jan-21 12:47 34.598942 -118.115911 48 7038ft 158kts
11-Jan-21 12:48 34.626093 -118.072348 48 7036ft 158kts
11-Jan-21 12:49 34.627322 -118.017445 91 7035ft 165kts
11-Jan-21 12:50 34.622393 -117.960706 91 7032ft 165kts
11-Jan-21 12:51 34.617435 -117.904291 91 7031ft 165kts
11-Jan-21 12:53 34.612501 -117.848496 91 7030ft 164kts
11-Jan-21 12:54 34.607501 -117.792253 92 7030ft 164kts
11-Jan-21 12:55 34.602470 -117.735963 92 7029ft 164kts
11-Jan-21 12:56 34.597377 -117.679291 92 7029ft 164kts
11-Jan-21 12:57 34.592311 -117.623197 92 7028ft 164kts
11-Jan-21 12:58 34.587262 -117.567610 92 7027ft 164kts
11-Jan-21 12:59 34.582198 -117.512126 92 7027ft 164kts
11-Jan-21 13:00 34.577108 -117.456628 92 7027ft 164kts
11-Jan-21 13:01 34.571925 -117.400409 92 7027ft 164kts
11-Jan-21 13:02 34.566692 -117.343929 93 7027ft 164kts
11-Jan-21 13:03 34.536562 -117.317039 173 7031ft 168kts
11-Jan-21 13:04 34.488276 -117.315820 179 7019ft 170kts
11-Jan-21 13:05 34.447528 -117.315883 180 6510ft 120kts
11-Jan-21 13:06 34.414127 -117.315976 179 5827ft 121kts
11-Jan-21 13:07 34.378341 -117.316046 179 5279ft 137kts
11-Jan-21 13:08 34.363660 -117.326521 43 4294ft 115kts
11-Jan-21 13:08 34.378650 -117.299454 51 4137ft 106kts
11-Jan-21 13:10 34.376895 -117.315961 216 3366ft 46kts
11-Jan-21 13:11 34.376459 -117.316041 39 3366ft 12kts
11-Jan-21 13:11 34.378961 -117.313670 37 3342ft 16kts
11-Jan-21 13:12 34.379449 -117.312921 124 3335ft 0kts

Navigation Log

Ident Type
Flight plan parsing failed, navigation log unavailable